createdAt,value
2019-05-18T00:03:19.718Z,78.44
2019-05-18T00:08:43.289Z,78.34
2019-05-18T00:14:06.609Z,79.47
2019-05-18T00:19:29.849Z,79.69
2019-05-18T00:24:52.984Z,79.80
2019-05-18T00:30:16.765Z,79.74
2019-05-18T00:35:39.991Z,79.40
2019-05-18T00:41:03.210Z,79.89
2019-05-18T00:46:26.397Z,80.41
2019-05-18T00:51:50.126Z,80.56
2019-05-18T00:57:13.304Z,80.89
2019-05-18T01:02:36.579Z,80.93
2019-05-18T01:08:00.165Z,81.07
2019-05-18T01:13:22.867Z,80.52
2019-05-18T01:18:45.641Z,82.82
2019-05-18T01:24:09.114Z,83.28
2019-05-18T01:29:32.220Z,83.98
2019-05-18T01:34:55.401Z,84.42
2019-05-18T01:40:19.086Z,83.09
2019-05-18T01:45:42.407Z,83.72
2019-05-18T01:51:19.338Z,83.54
2019-05-18T01:56:43.127Z,84.17
2019-05-18T02:02:05.792Z,84.34
2019-05-18T02:07:29.035Z,84.97
2019-05-18T02:12:52.622Z,84.63
2019-05-18T02:18:28.222Z,85.52
2019-05-18T02:23:40.169Z,84.90
2019-05-18T02:29:03.387Z,84.97
2019-05-18T02:34:26.873Z,86.79
2019-05-18T02:39:51.789Z,87.55
2019-05-18T02:45:14.550Z,87.54
2019-05-18T02:50:37.918Z,88.01
2019-05-18T02:56:00.985Z,88.55
2019-05-18T03:01:23.833Z,88.80
2019-05-18T03:06:46.834Z,87.04
2019-05-18T03:12:10.285Z,87.08
2019-05-18T03:17:33.483Z,86.33
2019-05-18T03:22:57.307Z,86.26
2019-05-18T03:28:20.561Z,85.65
2019-05-18T03:33:43.791Z,86.51
2019-05-18T03:39:07.444Z,86.27
2019-05-18T03:44:31.222Z,86.40
2019-05-18T03:49:54.597Z,86.55
2019-05-18T03:55:17.396Z,85.64
2019-05-18T04:00:40.224Z,86.60
2019-05-18T04:06:03.431Z,86.11
2019-05-18T04:11:27.046Z,87.19
2019-05-18T04:16:50.406Z,87.71
2019-05-18T04:22:13.422Z,86.98
2019-05-18T04:27:36.180Z,87.99
2019-05-18T04:32:59.642Z,87.74
2019-05-18T04:38:23.086Z,88.66
2019-05-18T04:43:46.520Z,87.73
2019-05-18T04:49:09.987Z,88.22
2019-05-18T04:54:33.513Z,86.64
2019-05-18T04:59:56.725Z,86.29
2019-05-18T05:05:20.092Z,87.25
2019-05-18T05:10:43.516Z,86.48
2019-05-18T05:16:06.778Z,87.26
2019-05-18T05:21:30.926Z,86.08
2019-05-18T05:26:54.382Z,86.43
2019-05-18T05:32:17.961Z,85.42
2019-05-18T05:37:41.175Z,85.54
2019-05-18T05:43:03.945Z,85.35
2019-05-18T05:48:27.726Z,84.79
2019-05-18T05:53:50.667Z,84.46
2019-05-18T05:59:14.088Z,83.37
2019-05-18T06:04:37.296Z,83.26
2019-05-18T06:10:00.853Z,81.82
2019-05-18T06:15:23.585Z,79.66
2019-05-18T06:20:51.498Z,77.63
2019-05-18T06:26:11.592Z,74.74
2019-05-18T06:31:35.224Z,73.90
2019-05-18T06:36:58.593Z,73.12
2019-05-18T06:42:22.484Z,70.88
2019-05-18T06:47:48.254Z,69.71
2019-05-18T06:53:09.516Z,68.21
2019-05-18T06:58:34.169Z,67.74
2019-05-18T07:03:57.088Z,66.83
2019-05-18T07:09:20.291Z,65.99
2019-05-18T07:14:43.118Z,66.09
2019-05-18T07:20:06.710Z,65.66
2019-05-18T07:25:29.556Z,63.95
2019-05-18T07:30:52.772Z,63.35
2019-05-18T07:36:16.632Z,62.72
2019-05-18T07:41:46.843Z,62.48
2019-05-18T07:47:04.438Z,61.71
2019-05-18T07:52:28.657Z,60.14
2019-05-18T07:57:52.585Z,59.22
2019-05-18T08:03:17.406Z,57.63
2019-05-18T08:08:40.063Z,57.53
2019-05-18T08:14:03.092Z,56.81
2019-05-18T08:19:26.891Z,56.48
2019-05-18T08:24:50.190Z,56.03
2019-05-18T08:30:13.549Z,55.05
2019-05-18T08:35:36.726Z,54.87
2019-05-18T08:40:59.351Z,53.93
2019-05-18T08:46:22.777Z,53.30
2019-05-18T08:51:46.232Z,53.06
2019-05-18T08:57:09.855Z,52.47
2019-05-18T09:02:32.636Z,52.07
2019-05-18T09:07:56.614Z,51.54
2019-05-18T09:13:19.633Z,50.69
2019-05-18T09:18:43.151Z,50.51
2019-05-18T09:24:06.473Z,50.23
2019-05-18T09:29:29.773Z,49.69
2019-05-18T09:34:53.131Z,48.37
2019-05-18T09:40:16.920Z,46.99
2019-05-18T09:45:40.467Z,46.60
2019-05-18T09:51:03.988Z,46.33
2019-05-18T09:56:27.033Z,45.29
2019-05-18T10:01:50.393Z,44.40
2019-05-18T10:07:13.696Z,43.17
2019-05-18T10:12:37.324Z,42.75
2019-05-18T10:18:00.666Z,42.29
2019-05-18T10:23:32.081Z,42.99
2019-05-18T10:28:55.631Z,42.79
2019-05-18T10:34:18.569Z,43.32
2019-05-18T10:39:41.911Z,41.98
2019-05-18T10:56:22.124Z,40.68
2019-05-18T11:01:45.659Z,39.31
2019-05-18T11:07:08.977Z,37.91
2019-05-18T11:12:36.411Z,37.19
2019-05-18T11:17:59.453Z,36.28
2019-05-18T11:23:22.865Z,35.91
2019-05-18T11:28:46.543Z,34.98
2019-05-18T11:34:10.219Z,32.22
2019-05-18T11:39:33.355Z,28.70
2019-05-18T11:44:56.836Z,30.29
2019-05-18T11:50:20.356Z,32.51
2019-05-18T11:55:43.601Z,31.49
2019-05-18T12:01:07.106Z,23.89
2019-05-18T12:06:30.300Z,22.87
2019-05-18T12:11:53.242Z,21.01
2019-05-18T12:17:16.661Z,22.31
2019-05-18T12:22:40.263Z,17.29
2019-05-18T12:28:03.865Z,17.25
2019-05-18T12:33:27.164Z,18.12
2019-05-18T12:38:50.915Z,16.35
2019-05-18T12:44:14.338Z,15.39
2019-05-18T12:49:38.044Z,21.43
2019-05-18T12:55:07.611Z,22.99
2019-05-18T13:00:31.596Z,19.03
2019-05-18T13:05:54.733Z,22.22
2019-05-18T13:11:18.323Z,26.12
2019-05-18T13:16:41.643Z,22.17
2019-05-18T13:22:05.181Z,19.52
2019-05-18T13:27:38.750Z,20.74
2019-05-18T13:32:52.794Z,23.26
2019-05-18T13:38:16.131Z,22.32
2019-05-18T13:43:39.312Z,22.97
2019-05-18T13:49:02.307Z,22.61
2019-05-18T13:54:25.797Z,23.87
2019-05-18T13:59:49.363Z,24.15
2019-05-18T14:05:14.072Z,24.73
2019-05-18T14:10:37.186Z,25.16
2019-05-18T14:16:00.164Z,25.40
2019-05-18T14:21:23.676Z,25.16
2019-05-18T14:26:46.536Z,26.13
2019-05-18T14:32:11.021Z,25.56
2019-05-18T14:37:34.469Z,25.98
2019-05-18T14:42:57.599Z,26.73
2019-05-18T14:48:21.088Z,26.07
2019-05-18T14:53:44.697Z,26.88
2019-05-18T14:59:08.057Z,26.10
2019-05-18T15:04:30.790Z,26.04
2019-05-18T15:09:53.991Z,27.56
2019-05-18T15:15:17.741Z,27.53
2019-05-18T15:20:40.638Z,26.81
2019-05-18T15:26:03.943Z,27.59
2019-05-18T15:31:27.609Z,27.71
2019-05-18T15:36:51.390Z,26.91
2019-05-18T15:42:14.436Z,26.75
2019-05-18T15:47:37.997Z,27.20
2019-05-18T15:53:00.510Z,28.09
2019-05-18T15:58:24.128Z,27.69
2019-05-18T16:03:47.971Z,28.28
2019-05-18T16:09:11.342Z,28.49
2019-05-18T16:14:34.318Z,27.96
2019-05-18T16:19:58.019Z,28.22
2019-05-18T16:25:21.484Z,27.44
2019-05-18T16:30:44.439Z,24.88
2019-05-18T16:36:07.494Z,25.25
2019-05-18T16:41:30.332Z,26.96
2019-05-18T16:46:53.856Z,28.72
2019-05-18T16:52:16.863Z,29.00
2019-05-18T16:57:40.171Z,29.50
2019-05-18T17:03:03.592Z,29.91
2019-05-18T17:08:26.432Z,30.25
2019-05-18T17:13:49.225Z,29.81
2019-05-18T17:19:12.601Z,29.67
2019-05-18T17:24:36.313Z,28.94
2019-05-18T17:29:59.517Z,29.59
2019-05-18T17:35:23.103Z,30.40
2019-05-18T17:40:46.624Z,30.95
2019-05-18T17:46:09.821Z,30.97
2019-05-18T17:51:33.152Z,31.25
2019-05-18T17:57:08.004Z,31.54
2019-05-18T18:02:21.388Z,32.60
2019-05-18T18:07:45.165Z,32.81
2019-05-18T18:13:09.627Z,33.32
2019-05-18T18:18:34.868Z,33.52
2019-05-18T18:23:57.331Z,34.40
2019-05-18T18:29:21.137Z,35.45
2019-05-18T18:34:43.872Z,35.58
2019-05-18T18:40:07.436Z,36.04
2019-05-18T18:45:30.901Z,36.68
2019-05-18T18:50:54.479Z,37.04
2019-05-18T18:56:17.863Z,38.03
2019-05-18T19:01:41.034Z,38.94
2019-05-18T19:07:04.356Z,41.56
2019-05-18T19:12:27.851Z,42.84
2019-05-18T19:17:51.053Z,42.96
2019-05-18T19:23:14.757Z,44.61
2019-05-18T19:28:38.049Z,44.71
2019-05-18T19:34:01.753Z,45.77
2019-05-18T19:39:25.008Z,46.02
2019-05-18T19:44:48.233Z,46.44
2019-05-18T19:50:12.043Z,46.53
2019-05-18T19:55:35.061Z,47.11
2019-05-18T20:00:58.643Z,47.27
2019-05-18T20:06:22.178Z,47.92
2019-05-18T20:11:45.362Z,46.94
2019-05-18T20:17:09.095Z,47.21
2019-05-18T20:22:32.167Z,46.50
2019-05-18T20:27:55.707Z,46.39
2019-05-18T20:33:19.550Z,45.67
2019-05-18T20:38:42.857Z,46.28
2019-05-18T20:44:06.358Z,47.49
2019-05-18T20:49:29.404Z,48.03
2019-05-18T20:54:52.757Z,48.77
2019-05-18T21:00:16.547Z,49.33
2019-05-18T21:05:39.981Z,49.38
2019-05-18T21:11:03.539Z,50.11
2019-05-18T21:16:27.159Z,50.03
2019-05-18T21:21:50.417Z,50.81
2019-05-18T21:27:13.535Z,50.98
2019-05-18T21:32:36.865Z,51.32
2019-05-18T21:37:59.615Z,51.68
2019-05-18T21:43:22.428Z,52.14
2019-05-18T21:48:45.991Z,52.15
2019-05-18T21:54:09.873Z,52.36
2019-05-18T21:59:33.172Z,53.08
2019-05-18T22:04:56.652Z,53.11
2019-05-18T22:10:25.766Z,53.77
2019-05-18T22:15:45.425Z,54.05
2019-05-18T22:21:09.346Z,54.24
2019-05-18T22:26:32.679Z,53.56
2019-05-18T22:31:56.802Z,54.58
2019-05-18T22:37:19.656Z,54.43
2019-05-18T22:42:43.164Z,54.72
2019-05-18T22:48:05.918Z,54.49
2019-05-18T22:53:29.458Z,54.73
2019-05-18T22:58:52.784Z,54.63
2019-05-18T23:04:16.228Z,54.68
2019-05-18T23:09:39.535Z,54.30
2019-05-18T23:15:03.157Z,54.57
2019-05-18T23:20:26.218Z,54.74
2019-05-18T23:25:49.757Z,54.74
2019-05-18T23:31:13.355Z,55.21
2019-05-18T23:36:37.007Z,55.43
2019-05-18T23:42:00.634Z,55.10
2019-05-18T23:47:23.526Z,55.45
2019-05-18T23:52:46.766Z,56.14
2019-05-18T23:58:10.307Z,55.73
